Medford, OR (97501)

14:54 PST le 27 novembre 2014 (GMT -0800)
Southwest Medford (CW2551) | Change Station
CLOSE
Current Station
Stations météorologiques personnelles
Location: Medford, OR
Altitude: 1472 ft
Stations météo à proximité

Alt. 1472 ft 42.31 °N, 122.90 °W | Updated 6 seconds ago

Ciel dégagé
Ciel dégagé
56.9 ° F
Paraît 56.9 ° F
N
2.3
Vent Variable Vent de NO
Gusts 2.3 mph

Aujourd'hui
Haut(e) -- | Bas -- ° F
--% Risque de précip.
Hier
Haut(e) -- | Bas -- ° F
Precip. -- pouce
7:16 AM 4:41 PM
Lune montante, 33% visible
Pression 29.96 pouce
Visibilité 10.0 Miles terrestres
Nuages Nuageux 11000 ft
Point de rosée 49 ° F
Humidité 74%
Précipitations 0.00 pouce
Profondeur de la couche neigeuse Non disponible.
UV 0.0 sur 12
Pollen .30 sur 12
Qualité de l'air Non disponible.
Flu Activity Non disponible.
METAR KMFR 272153Z 07008KT 10SM BKN110 14/09 A2996 RMK AO2 PRESFR SLP145 T01440094

More Conditions Fewer Conditions

Pression 29.96 pouce
Visibilité 10.0 Miles terrestres
Nuages Nuageux 11000 ft
Point de rosée 49 ° F
Humidité 74%
Précipitations 0.00 pouce
Profondeur de la couche neigeuse Non disponible.
UV 0.0 sur 12
Pollen .30 sur 12
Qualité de l'air Non disponible.
Flu Activity Non disponible.
METAR KMFR 272153Z 07008KT 10SM BKN110 14/09 A2996 RMK AO2 PRESFR SLP145 T01440094

More Conditions Fewer Conditions

10-Day Weather Forecast

Almanac

Astronomie

Nov. 27, 2014 Lever Coucher
Temps réel
Crépuscule civil
Crépuscule nautique
Crépuscule astronomique
Lune
Durée de lumière visible
Longueur du jour
Tomorrow will be .
, % of the Moon is Illuminated

Extrêmes aujourd'hui

State Highs State Lows

Community

WunderPhotos

Upload Photos

1,774,125 Photos téléchargées !

WunderBlogs® & News

Nearby

Qualité de l'air

  Qualité de l'air Indice de la qualité de l'air Polluant
Not available.

Épaisseur de neige

Station Depth Altitude

Activité sismique

Ville Distance Mag. Time & Date
Minimum magnitude displayed is 2.5.

Températures des eaux côtières

Lieu Température

Stations météo à proximité